createdAt,value
2023-06-18T00:02:02.632Z,10.13
2023-06-18T00:04:29.541Z,10.27
2023-06-18T00:06:57.433Z,10.25
2023-06-18T00:09:24.731Z,10.43
2023-06-18T00:11:51.954Z,9.65
2023-06-18T00:14:19.523Z,10.40
2023-06-18T00:16:46.581Z,10.43
2023-06-18T00:19:15.205Z,9.10
2023-06-18T00:21:42.181Z,10.20
2023-06-18T00:24:09.178Z,10.10
2023-06-18T00:26:36.240Z,8.88
2023-06-18T00:29:03.386Z,9.10
2023-06-18T00:31:33.661Z,9.35
2023-06-18T00:34:08.441Z,9.10
2023-06-18T00:36:40.432Z,10.40
2023-06-18T00:39:08.331Z,9.65
2023-06-18T00:41:36.321Z,10.10
2023-06-18T00:44:03.708Z,9.80
2023-06-18T00:46:36.677Z,9.63
2023-06-18T00:49:03.901Z,10.02
2023-06-18T00:51:31.582Z,9.80
2023-06-18T00:53:58.987Z,9.10
2023-06-18T00:56:26.693Z,10.35
2023-06-18T00:58:53.680Z,10.30
2023-06-18T01:01:21.402Z,9.98
2023-06-18T01:03:49.664Z,9.45
2023-06-18T01:06:18.704Z,10.10
2023-06-18T01:08:50.360Z,9.23
2023-06-18T01:13:47.230Z,8.60
2023-06-18T01:16:14.935Z,9.30
2023-06-18T01:18:51.803Z,8.52
2023-06-18T01:21:21.895Z,8.90
2023-06-18T01:23:58.696Z,9.02
2023-06-18T01:26:27.827Z,8.85
2023-06-18T01:28:55.217Z,9.73
2023-06-18T01:31:27.759Z,9.18
2023-06-18T01:33:56.300Z,8.75
2023-06-18T01:36:48.750Z,10.07
2023-06-18T01:39:18.390Z,9.38
2023-06-18T01:41:46.640Z,9.30
2023-06-18T01:44:20.232Z,8.95
2023-06-18T01:46:48.326Z,9.18
2023-06-18T01:49:16.462Z,9.57
2023-06-18T01:51:43.682Z,10.07
2023-06-18T01:54:10.860Z,9.60
2023-06-18T01:56:37.922Z,9.10
2023-06-18T01:59:04.900Z,9.57
2023-06-18T02:01:32.347Z,9.20
2023-06-18T02:03:59.487Z,9.32
2023-06-18T02:06:26.635Z,10.50
2023-06-18T02:08:53.508Z,9.60
2023-06-18T02:11:20.509Z,9.50
2023-06-18T02:13:47.386Z,8.40
2023-06-18T02:16:14.432Z,8.93
2023-06-18T02:18:41.808Z,9.48
2023-06-18T02:21:09.301Z,9.82
2023-06-18T02:23:36.347Z,9.80
2023-06-18T02:26:04.838Z,10.02
2023-06-18T02:28:31.823Z,10.27
2023-06-18T02:30:58.663Z,10.35
2023-06-18T02:33:26.528Z,10.30
2023-06-18T02:35:53.454Z,10.00
2023-06-18T02:38:20.287Z,9.57
2023-06-18T02:40:47.165Z,10.38
2023-06-18T02:43:14.167Z,10.05
2023-06-18T02:45:41.142Z,11.00
2023-06-18T02:48:08.066Z,9.07
2023-06-18T02:50:35.056Z,10.30
2023-06-18T02:53:01.955Z,11.02
2023-06-18T02:55:29.359Z,9.50
2023-06-18T02:57:56.267Z,9.23
2023-06-18T03:00:23.324Z,9.70
2023-06-18T03:02:50.675Z,9.27
2023-06-18T03:05:17.622Z,9.80
2023-06-18T03:07:44.624Z,9.32
2023-06-18T03:10:11.592Z,10.13
2023-06-18T03:12:38.511Z,9.85
2023-06-18T03:15:06.939Z,10.27
2023-06-18T03:17:33.926Z,10.43
2023-06-18T03:20:00.818Z,11.50
2023-06-18T03:22:27.690Z,10.68
2023-06-18T03:24:54.541Z,9.93
2023-06-18T03:27:21.667Z,9.60
2023-06-18T03:29:48.644Z,10.40
2023-06-18T03:32:15.560Z,9.70
2023-06-18T03:34:43.521Z,10.63
2023-06-18T03:37:10.733Z,11.48
2023-06-18T03:39:37.584Z,10.90
2023-06-18T03:42:04.614Z,10.75
2023-06-18T03:44:31.534Z,11.52
2023-06-18T03:46:58.492Z,11.13
2023-06-18T03:49:25.536Z,11.27
2023-06-18T03:51:52.433Z,11.90
2023-06-18T03:54:19.361Z,13.00
2023-06-18T03:56:46.214Z,11.98
2023-06-18T03:59:13.167Z,11.90
2023-06-18T04:01:40.061Z,11.52
2023-06-18T04:04:06.944Z,12.15
2023-06-18T04:06:33.952Z,12.82
2023-06-18T04:09:00.792Z,12.45
2023-06-18T04:11:28.376Z,12.20
2023-06-18T04:13:55.476Z,12.55
2023-06-18T04:16:22.349Z,12.38
2023-06-18T04:18:49.200Z,12.13
2023-06-18T04:21:16.088Z,12.85
2023-06-18T04:23:46.072Z,13.10
2023-06-18T04:26:13.028Z,11.93
2023-06-18T04:28:39.978Z,12.13
2023-06-18T04:31:06.898Z,11.52
2023-06-18T04:33:33.979Z,12.27
2023-06-18T04:36:00.859Z,12.10
2023-06-18T04:38:28.218Z,13.50
2023-06-18T04:40:55.090Z,12.13
2023-06-18T04:43:22.002Z,12.55
2023-06-18T04:45:49.443Z,13.27
2023-06-18T04:48:16.373Z,12.40
2023-06-18T04:50:43.315Z,11.93
2023-06-18T04:53:10.185Z,13.00
2023-06-18T04:55:38.137Z,12.68
2023-06-18T04:58:06.103Z,12.07
2023-06-18T05:00:34.472Z,13.02
2023-06-18T05:03:02.127Z,12.68
2023-06-18T05:05:29.272Z,12.25
2023-06-18T05:07:56.407Z,12.82
2023-06-18T05:10:23.863Z,12.70
2023-06-18T05:12:51.112Z,12.75
2023-06-18T05:15:18.045Z,12.35
2023-06-18T05:17:44.973Z,12.88
2023-06-18T05:20:12.431Z,12.43
2023-06-18T05:22:41.361Z,12.85
2023-06-18T05:25:08.484Z,13.85
2023-06-18T05:27:35.524Z,13.98
2023-06-18T05:30:02.785Z,14.23
2023-06-18T05:32:29.742Z,13.10
2023-06-18T05:34:56.757Z,13.60
2023-06-18T05:37:23.676Z,14.27
2023-06-18T05:39:53.819Z,12.90
2023-06-18T05:42:21.093Z,12.77
2023-06-18T05:44:48.062Z,14.18
2023-06-18T05:47:14.965Z,14.00
2023-06-18T05:49:41.821Z,14.10
2023-06-18T05:52:08.703Z,14.00
2023-06-18T05:54:35.548Z,13.35
2023-06-18T05:57:02.424Z,13.50
2023-06-18T05:59:29.358Z,14.90
2023-06-18T06:01:56.977Z,14.07
2023-06-18T06:04:24.237Z,13.18
2023-06-18T06:06:51.674Z,13.73
2023-06-18T06:09:18.594Z,13.57
2023-06-18T06:11:45.640Z,14.18
2023-06-18T06:14:12.537Z,14.27
2023-06-18T06:16:39.689Z,14.20
2023-06-18T06:19:06.811Z,13.68
2023-06-18T06:21:35.112Z,13.98
2023-06-18T06:24:02.904Z,14.20
2023-06-18T06:26:29.962Z,14.32
2023-06-18T06:28:56.861Z,15.05
2023-06-18T06:31:23.783Z,14.52
2023-06-18T06:33:52.254Z,14.70
2023-06-18T06:36:19.647Z,15.70
2023-06-18T06:38:46.544Z,14.18
2023-06-18T06:41:13.436Z,14.88
2023-06-18T06:43:40.801Z,14.80
2023-06-18T06:46:07.783Z,13.93
2023-06-18T06:48:34.718Z,13.75
2023-06-18T06:51:01.894Z,13.73
2023-06-18T06:53:28.845Z,11.90
2023-06-18T06:55:55.796Z,10.32
2023-06-18T06:58:22.671Z,9.77
2023-06-18T07:00:49.708Z,9.27
2023-06-18T07:03:16.785Z,9.50
2023-06-18T07:05:43.899Z,9.80
2023-06-18T07:08:10.918Z,9.20
2023-06-18T07:10:37.841Z,8.82
2023-06-18T07:13:05.594Z,8.65
2023-06-18T07:15:32.561Z,8.73
2023-06-18T07:17:59.437Z,8.27
2023-06-18T07:20:26.358Z,8.45
2023-06-18T07:22:53.298Z,8.93
2023-06-18T07:25:20.146Z,8.75
2023-06-18T07:27:47.755Z,9.40
2023-06-18T07:30:14.741Z,8.73
2023-06-18T07:32:41.669Z,7.78
2023-06-18T07:35:09.198Z,8.27
2023-06-18T07:37:36.248Z,8.25
2023-06-18T07:40:03.274Z,7.93
2023-06-18T07:42:30.174Z,8.73
2023-06-18T07:44:57.158Z,8.63
2023-06-18T07:47:24.097Z,8.70
2023-06-18T07:49:51.168Z,9.68
2023-06-18T07:52:18.345Z,9.10
2023-06-18T07:54:45.187Z,8.32
2023-06-18T07:57:12.301Z,9.38
2023-06-18T07:59:39.248Z,8.18
2023-06-18T08:02:06.598Z,8.57
2023-06-18T08:04:33.559Z,9.85
2023-06-18T08:07:00.652Z,8.65
2023-06-18T08:09:27.733Z,8.73
2023-06-18T08:11:54.667Z,8.93
2023-06-18T08:14:21.547Z,8.48
2023-06-18T08:16:49.377Z,9.00
2023-06-18T08:19:16.262Z,9.00
2023-06-18T08:21:43.488Z,9.10
2023-06-18T08:24:10.513Z,8.15
2023-06-18T08:26:38.093Z,8.00
2023-06-18T08:29:05.060Z,7.88
2023-06-18T08:31:32.489Z,8.40
2023-06-18T08:33:59.343Z,8.68
2023-06-18T08:36:26.317Z,8.52
2023-06-18T08:38:53.133Z,8.02
2023-06-18T08:41:20.049Z,9.30
2023-06-18T08:43:47.334Z,8.80
2023-06-18T08:46:15.411Z,7.93
2023-06-18T08:48:45.139Z,8.48
2023-06-18T08:51:12.920Z,8.05
2023-06-18T08:53:46.924Z,9.18
2023-06-18T08:56:19.306Z,8.48
2023-06-18T08:58:51.259Z,8.80
2023-06-18T09:01:19.483Z,8.02
2023-06-18T09:03:46.670Z,8.38
2023-06-18T09:06:13.933Z,9.40
2023-06-18T09:08:40.837Z,8.40
2023-06-18T09:11:07.886Z,9.00
2023-06-18T09:13:35.085Z,8.38
2023-06-18T09:16:01.997Z,9.40
2023-06-18T09:18:29.057Z,9.68
2023-06-18T09:20:56.793Z,9.02
2023-06-18T09:23:23.752Z,9.48
2023-06-18T09:25:52.204Z,9.40
2023-06-18T09:28:22.329Z,9.48
2023-06-18T09:30:50.449Z,10.07
2023-06-18T09:33:26.807Z,8.95
2023-06-18T09:36:06.680Z,9.40
2023-06-18T09:38:37.744Z,8.95
2023-06-18T09:41:13.016Z,8.27
2023-06-18T09:43:41.309Z,10.07
2023-06-18T09:46:08.735Z,8.93
2023-06-18T09:48:36.908Z,9.70
2023-06-18T09:51:04.662Z,8.65
2023-06-18T09:53:32.168Z,9.38
2023-06-18T09:56:28.270Z,8.55
2023-06-18T09:58:55.144Z,8.43
2023-06-18T10:01:22.036Z,8.18
2023-06-18T10:03:49.343Z,8.25
2023-06-18T10:06:16.744Z,8.55
2023-06-18T10:08:45.010Z,7.35
2023-06-18T10:11:12.272Z,6.72
2023-06-18T10:13:59.862Z,7.38
2023-06-18T10:16:30.075Z,6.65
2023-06-18T10:19:03.151Z,6.80
2023-06-18T10:21:30.510Z,6.45
2023-06-18T10:24:00.157Z,7.13
2023-06-18T10:26:28.614Z,6.40
2023-06-18T10:28:57.242Z,6.13
2023-06-18T10:31:24.243Z,5.95
2023-06-18T10:33:51.409Z,5.75
2023-06-18T10:36:18.684Z,6.07
2023-06-18T10:38:46.139Z,5.95
2023-06-18T10:41:13.725Z,5.78
2023-06-18T10:43:41.445Z,5.80
2023-06-18T10:46:09.586Z,6.25
2023-06-18T10:48:36.779Z,6.10
2023-06-18T10:51:16.155Z,6.18
2023-06-18T10:53:43.725Z,5.80
2023-06-18T10:56:11.265Z,6.20
2023-06-18T10:58:41.014Z,6.60
2023-06-18T11:01:07.969Z,6.40
2023-06-18T11:03:39.013Z,6.43
2023-06-18T11:06:09.536Z,7.00
2023-06-18T11:08:36.792Z,6.82
2023-06-18T11:11:04.930Z,6.82
2023-06-18T11:13:35.820Z,6.80
2023-06-18T11:16:10.446Z,6.80
2023-06-18T11:18:37.930Z,6.75
2023-06-18T11:21:05.081Z,7.22
2023-06-18T11:23:32.679Z,7.30
2023-06-18T11:26:00.140Z,6.55
2023-06-18T11:28:27.217Z,7.07
2023-06-18T11:30:59.580Z,7.63
2023-06-18T11:33:28.270Z,6.82
2023-06-18T11:35:57.120Z,6.03
2023-06-18T11:38:24.002Z,5.90
2023-06-18T11:40:55.082Z,5.80
2023-06-18T11:43:22.302Z,5.57
2023-06-18T11:45:50.022Z,5.53
2023-06-18T11:48:17.926Z,5.50
2023-06-18T11:50:45.205Z,5.00
2023-06-18T11:53:12.859Z,4.88
2023-06-18T11:55:39.862Z,4.57
2023-06-18T11:58:07.056Z,4.40
2023-06-18T12:00:33.983Z,4.32
2023-06-18T12:03:02.059Z,4.57
2023-06-18T12:05:38.571Z,4.30
2023-06-18T12:08:09.147Z,4.35
2023-06-18T12:10:37.604Z,4.40
2023-06-18T12:13:10.503Z,4.20
2023-06-18T12:15:40.093Z,4.38
2023-06-18T12:18:14.406Z,4.30
2023-06-18T12:20:41.472Z,4.22
2023-06-18T12:23:08.568Z,4.43
2023-06-18T12:25:35.662Z,5.22
2023-06-18T12:28:06.091Z,4.80
2023-06-18T12:30:35.720Z,4.20
2023-06-18T12:33:07.019Z,4.47
2023-06-18T12:35:35.436Z,4.60
2023-06-18T12:38:09.933Z,4.18
2023-06-18T12:40:53.878Z,4.55
2023-06-18T12:43:21.359Z,4.43
2023-06-18T12:45:52.080Z,4.28
2023-06-18T12:48:25.777Z,3.92
2023-06-18T12:50:53.728Z,4.00
2023-06-18T12:53:21.932Z,4.20
2023-06-18T12:55:50.120Z,4.32
2023-06-18T12:58:18.611Z,4.18
2023-06-18T13:00:45.820Z,3.88
2023-06-18T13:03:13.064Z,4.18
2023-06-18T13:05:39.959Z,4.00
2023-06-18T13:08:11.603Z,4.45
2023-06-18T13:10:38.475Z,4.95
2023-06-18T13:13:05.348Z,4.38
2023-06-18T13:15:32.339Z,4.45
2023-06-18T13:17:59.456Z,4.82
2023-06-18T13:20:26.798Z,5.00
2023-06-18T13:22:54.777Z,5.05
2023-06-18T13:25:22.528Z,5.05
2023-06-18T13:27:49.721Z,4.80
2023-06-18T13:30:16.781Z,4.85
2023-06-18T13:32:43.846Z,4.78
2023-06-18T13:35:10.807Z,5.03
2023-06-18T13:37:37.700Z,4.70
2023-06-18T13:40:05.306Z,5.10
2023-06-18T13:42:32.478Z,4.80
2023-06-18T13:45:00.543Z,4.72
2023-06-18T13:47:27.783Z,4.85
2023-06-18T13:49:55.140Z,4.82
2023-06-18T13:52:22.146Z,4.72
2023-06-18T13:54:49.129Z,5.75
2023-06-18T13:57:16.800Z,4.57
2023-06-18T13:59:43.685Z,5.07
2023-06-18T14:02:10.561Z,5.10
2023-06-18T14:04:37.874Z,5.40
2023-06-18T14:07:05.271Z,5.75
2023-06-18T14:09:32.136Z,4.55
2023-06-18T14:11:58.992Z,5.05
2023-06-18T14:14:26.044Z,4.88
2023-06-18T14:16:52.891Z,4.55
2023-06-18T14:19:19.831Z,4.60
2023-06-18T14:21:46.789Z,4.65
2023-06-18T14:24:13.822Z,4.75
2023-06-18T14:26:40.709Z,5.38
2023-06-18T14:29:07.598Z,5.35
2023-06-18T14:31:35.047Z,4.97
2023-06-18T14:34:08.804Z,5.47
2023-06-18T14:36:39.172Z,5.07
2023-06-18T14:39:07.119Z,5.40
2023-06-18T14:41:34.172Z,5.55
2023-06-18T14:44:01.143Z,5.10
2023-06-18T14:46:29.614Z,5.47
2023-06-18T14:48:56.566Z,5.25
2023-06-18T14:51:23.453Z,5.45
2023-06-18T14:53:52.598Z,5.35
2023-06-18T14:56:21.081Z,5.63
2023-06-18T14:58:48.124Z,6.07
2023-06-18T15:01:15.109Z,6.63
2023-06-18T15:03:42.204Z,7.90
2023-06-18T15:06:09.177Z,6.82
2023-06-18T15:08:36.230Z,6.90
2023-06-18T15:11:03.127Z,7.07
2023-06-18T15:13:30.038Z,7.50
2023-06-18T15:15:57.794Z,7.90
2023-06-18T15:18:24.712Z,7.97
2023-06-18T15:20:51.622Z,7.90
2023-06-18T15:23:18.471Z,7.95
2023-06-18T15:25:45.474Z,8.48
2023-06-18T15:28:12.362Z,7.82
2023-06-18T15:30:39.255Z,7.53
2023-06-18T15:33:06.264Z,7.93
2023-06-18T15:35:33.178Z,8.55
2023-06-18T15:38:01.695Z,8.23
2023-06-18T15:40:28.779Z,8.57
2023-06-18T15:42:55.678Z,9.20
2023-06-18T15:45:23.127Z,9.18
2023-06-18T15:47:50.296Z,8.80
2023-06-18T15:50:17.270Z,8.90
2023-06-18T15:52:44.361Z,9.43
2023-06-18T15:55:11.770Z,9.40
2023-06-18T15:57:38.801Z,9.32
2023-06-18T16:00:08.253Z,10.18
2023-06-18T16:02:35.284Z,10.15
2023-06-18T16:05:06.442Z,10.23
2023-06-18T16:07:34.921Z,9.55
2023-06-18T16:10:01.812Z,9.38
2023-06-18T16:12:29.614Z,9.15
2023-06-18T16:14:56.572Z,9.50
2023-06-18T16:17:24.058Z,9.77
2023-06-18T16:19:50.916Z,10.18
2023-06-18T16:22:17.804Z,10.30
2023-06-18T16:24:45.318Z,10.88
2023-06-18T16:27:12.265Z,10.75
2023-06-18T16:29:39.157Z,11.75
2023-06-18T16:32:12.305Z,12.05
2023-06-18T16:34:39.964Z,11.63
2023-06-18T16:37:07.179Z,12.18
2023-06-18T16:39:34.782Z,12.25
2023-06-18T16:42:01.729Z,12.93
2023-06-18T16:44:28.563Z,12.23
2023-06-18T16:46:55.510Z,13.15
2023-06-18T16:49:22.795Z,12.50
2023-06-18T16:51:49.702Z,12.15
2023-06-18T16:54:16.570Z,13.13
2023-06-18T16:56:44.646Z,12.75
2023-06-18T16:59:11.591Z,12.50
2023-06-18T17:01:38.603Z,13.00
2023-06-18T17:04:07.407Z,13.80
2023-06-18T17:06:37.044Z,12.82
2023-06-18T17:09:04.079Z,13.18
2023-06-18T17:11:31.192Z,13.13
2023-06-18T17:13:58.608Z,13.55
2023-06-18T17:16:25.941Z,13.80
2023-06-18T17:18:52.987Z,13.35
2023-06-18T17:21:20.647Z,14.18
2023-06-18T17:23:47.624Z,14.05
2023-06-18T17:26:14.489Z,14.73
2023-06-18T17:28:41.632Z,15.07
2023-06-18T17:31:08.540Z,16.27
2023-06-18T17:33:36.833Z,15.50
2023-06-18T17:36:05.771Z,14.50
2023-06-18T17:38:32.652Z,14.70
2023-06-18T17:40:59.533Z,14.82
2023-06-18T17:43:26.409Z,14.48
2023-06-18T17:46:13.263Z,13.70
2023-06-18T17:48:40.852Z,13.52
2023-06-18T17:51:07.745Z,13.68
2023-06-18T17:53:35.299Z,12.88
2023-06-18T17:56:02.365Z,12.25
2023-06-18T17:58:29.380Z,13.43
2023-06-18T18:00:56.898Z,13.93
2023-06-18T18:03:24.055Z,15.05
2023-06-18T18:05:51.008Z,13.85
2023-06-18T18:08:17.890Z,13.10
2023-06-18T18:10:45.751Z,13.32
2023-06-18T18:13:12.916Z,13.07
2023-06-18T18:15:40.077Z,14.23
2023-06-18T18:18:07.129Z,13.32
2023-06-18T18:20:34.406Z,13.88
2023-06-18T18:23:01.358Z,14.38
2023-06-18T18:25:28.268Z,13.50
2023-06-18T18:27:55.196Z,13.32
2023-06-18T18:30:22.730Z,12.40
2023-06-18T18:32:49.728Z,11.38
2023-06-18T18:35:16.763Z,12.25
2023-06-18T18:37:43.741Z,10.48
2023-06-18T18:40:11.954Z,11.10
2023-06-18T18:42:38.846Z,10.23
2023-06-18T18:45:05.991Z,11.23
2023-06-18T18:47:33.012Z,10.85
2023-06-18T18:50:00.019Z,11.15
2023-06-18T18:52:28.594Z,11.27
2023-06-18T18:54:55.491Z,12.15
2023-06-18T18:57:22.370Z,11.35
2023-06-18T18:59:49.425Z,10.52
2023-06-18T19:02:17.022Z,11.98
2023-06-18T19:04:44.317Z,12.63
2023-06-18T19:07:11.377Z,12.27
2023-06-18T19:09:39.203Z,12.80
2023-06-18T19:12:06.590Z,11.98
2023-06-18T19:14:33.834Z,13.60
2023-06-18T19:17:00.790Z,13.82
2023-06-18T19:19:27.792Z,12.68
2023-06-18T19:21:54.928Z,13.55
2023-06-18T19:24:21.852Z,13.32
2023-06-18T19:26:48.841Z,13.85
2023-06-18T19:29:15.931Z,13.70
2023-06-18T19:31:43.122Z,14.18
2023-06-18T19:34:10.007Z,14.85
2023-06-18T19:36:37.332Z,14.50
2023-06-18T19:39:04.178Z,15.55
2023-06-18T19:41:31.052Z,15.20
2023-06-18T19:43:57.917Z,15.60
2023-06-18T19:46:24.886Z,15.52
2023-06-18T19:48:51.769Z,15.52
2023-06-18T19:51:18.669Z,15.77
2023-06-18T19:53:45.534Z,15.88
2023-06-18T19:56:14.141Z,15.63
2023-06-18T19:58:41.139Z,16.60
2023-06-18T20:01:08.316Z,16.60
2023-06-18T20:03:38.564Z,16.65
2023-06-18T20:06:06.319Z,16.70
2023-06-18T20:08:33.677Z,18.17
2023-06-18T20:11:00.628Z,19.20
2023-06-18T20:13:27.575Z,17.63
2023-06-18T20:15:57.252Z,17.77
2023-06-18T20:18:24.544Z,17.33
2023-06-18T20:20:51.579Z,17.42
2023-06-18T20:23:18.577Z,17.85
2023-06-18T20:25:45.449Z,17.20
2023-06-18T20:28:13.355Z,19.20
2023-06-18T20:30:40.271Z,17.95
2023-06-18T20:33:08.537Z,17.83
2023-06-18T20:35:35.552Z,18.88
2023-06-18T20:38:03.679Z,17.58
2023-06-18T20:40:30.552Z,16.80
2023-06-18T20:42:57.414Z,15.93
2023-06-18T20:45:24.940Z,15.60
2023-06-18T20:47:52.007Z,16.67
2023-06-18T20:50:19.363Z,15.90
2023-06-18T20:52:46.260Z,16.23
2023-06-18T20:55:13.217Z,16.33
2023-06-18T20:57:40.221Z,15.20
2023-06-18T21:00:07.628Z,14.68
2023-06-18T21:02:34.687Z,15.68
2023-06-18T21:05:01.798Z,14.88
2023-06-18T21:07:28.689Z,14.95
2023-06-18T21:09:55.581Z,15.55
2023-06-18T21:12:22.497Z,15.73
2023-06-18T21:14:49.352Z,16.77
2023-06-18T21:17:16.263Z,16.58
2023-06-18T21:19:43.123Z,17.15
2023-06-18T21:22:10.077Z,17.90
2023-06-18T21:24:37.081Z,18.02
2023-06-18T21:27:04.275Z,17.38
2023-06-18T21:29:31.254Z,20.10
2023-06-18T21:31:59.401Z,19.05
2023-06-18T21:34:26.716Z,20.65
2023-06-18T21:36:54.677Z,20.25
2023-06-18T21:39:21.550Z,21.42
2023-06-18T21:41:48.597Z,20.50
2023-06-18T21:44:15.514Z,20.60
2023-06-18T21:46:42.644Z,21.33
2023-06-18T21:49:09.566Z,21.33
2023-06-18T21:51:36.501Z,21.33
2023-06-18T21:54:03.436Z,21.88
2023-06-18T21:56:30.902Z,21.70
2023-06-18T21:58:57.826Z,21.20
2023-06-18T22:01:24.719Z,21.38
2023-06-18T22:03:56.284Z,22.25
2023-06-18T22:06:24.141Z,21.98
2023-06-18T22:08:51.960Z,21.65
2023-06-18T22:11:19.585Z,22.23
2023-06-18T22:13:46.667Z,21.15
2023-06-18T22:16:13.704Z,22.25
2023-06-18T22:18:40.645Z,21.58
2023-06-18T22:21:07.814Z,21.90
2023-06-18T22:23:35.236Z,23.13
2023-06-18T22:26:02.185Z,22.23
2023-06-18T22:28:29.137Z,22.50
2023-06-18T22:30:56.168Z,22.38
2023-06-18T22:33:23.050Z,22.40
2023-06-18T22:35:49.924Z,22.33
2023-06-18T22:38:16.773Z,22.90
2023-06-18T22:40:43.752Z,22.58
2023-06-18T22:43:10.629Z,21.98
2023-06-18T22:45:37.524Z,22.52
2023-06-18T22:48:04.592Z,22.30
2023-06-18T22:50:31.586Z,22.58
2023-06-18T22:52:58.497Z,21.65
2023-06-18T22:55:25.424Z,21.52
2023-06-18T22:57:52.284Z,23.25
2023-06-18T23:00:19.530Z,20.88
2023-06-18T23:02:46.929Z,22.20
2023-06-18T23:05:13.885Z,22.15
2023-06-18T23:07:40.846Z,21.05
2023-06-18T23:10:08.086Z,21.10
2023-06-18T23:12:34.940Z,20.80
2023-06-18T23:15:01.850Z,19.63
2023-06-18T23:17:30.308Z,19.33
2023-06-18T23:19:57.204Z,18.52
2023-06-18T23:22:28.294Z,17.77
2023-06-18T23:24:55.880Z,18.95
2023-06-18T23:27:22.861Z,18.23
2023-06-18T23:29:49.777Z,17.70
2023-06-18T23:32:18.611Z,17.25
2023-06-18T23:34:45.597Z,17.15
2023-06-18T23:37:12.692Z,16.80
2023-06-18T23:39:39.753Z,17.15
2023-06-18T23:42:06.958Z,17.23
2023-06-18T23:44:33.957Z,17.55
2023-06-18T23:47:00.949Z,16.83
2023-06-18T23:49:27.787Z,16.80
2023-06-18T23:51:54.657Z,16.42
2023-06-18T23:54:21.535Z,17.20
2023-06-18T23:56:48.374Z,15.40
2023-06-18T23:59:15.672Z,16.20
